Clear Lake City, Texas
Current Conditions -  °F | °C
As of 4:50 PM on Thursday 27 Nov 2014 (Local Time) from KEFD Reporting Station
Clear Clear  
Wind Chill: 63°   Ceiling: Unl
Heat Index: 63°   Visibility: 10mi
Dew Point: 34°   Wind: 5mph
Humidity: 34%   Direction: 120°ESE
Pressure: 30.43"   Gusts: NA
Location:  29.5828°N, 95.0861°W
Report Text: KEFD 272250Z 12004KT 10SM CLR 17/01 A3043
Loading
Personal Weather Stations






























Interactive Weather Map New forecast layout! Learn more

10-Day Weather Forecast

Advertisements
Track Severe Weather on mobile